Time;durP1;ratioP1;P1;durP2;ratioP2;P2;SDS_P1;SDS_P2;PMS_P1;PMS_P2;Temp;Humidity;BMP_temperature;BMP_pressure;BME280_temperature;BME280_humidity;BME280_pressure;Samples;Min_cycle;Max_cycle;Signal;HPM_P1;HPM_P2
2022/01/16 00:00:08;;;;;;;14.03;9.37;;;;;;;1.05;100.00;101565.19;835327;23;924;-55
2022/01/16 00:00:40;;;;;;;13.90;9.25;;;;;;;1.06;100.00;101557.53;834050;23;656;-53
2022/01/16 00:04:09;;;;;;;13.57;9.02;;;;;;;1.30;100.00;101546.63;834043;23;1247;-53
2022/01/16 00:04:30;;;;;;;13.15;8.93;;;;;;;1.45;100.00;101549.91;828073;23;4853;-51
2022/01/16 00:04:50;;;;;;;14.27;9.05;;;;;;;1.41;100.00;101552.28;837744;23;1018;-54
2022/01/16 00:05:11;;;;;;;14.60;9.43;;;;;;;1.33;100.00;101550.25;839434;23;956;-53
2022/01/16 00:05:31;;;;;;;13.63;8.95;;;;;;;1.31;100.00;101558.72;838786;23;758;-52
2022/01/16 00:05:52;;;;;;;15.00;9.47;;;;;;;1.25;100.00;101558.44;838753;23;761;-54
2022/01/16 00:06:17;;;;;;;14.70;9.45;;;;;;;1.20;100.00;101555.63;838763;23;844;-55
2022/01/16 00:06:40;;;;;;;14.30;9.27;;;;;;;1.14;100.00;101563.06;837346;23;919;-50
2022/01/16 00:07:04;;;;;;;14.10;9.35;;;;;;;1.20;100.00;101565.91;839044;23;927;-54
2022/01/16 00:07:24;;;;;;;14.10;9.20;;;;;;;1.14;100.00;101568.22;837730;23;4772;-52
2022/01/16 00:07:45;;;;;;;14.27;9.18;;;;;;;1.09;100.00;101574.84;838975;23;947;-54
2022/01/16 00:08:05;;;;;;;13.67;8.87;;;;;;;1.19;100.00;101577.03;839388;23;832;-51
2022/01/16 00:08:26;;;;;;;14.65;9.77;;;;;;;1.19;100.00;101577.03;839499;23;824;-54
2022/01/16 00:08:46;;;;;;;14.97;9.27;;;;;;;1.18;100.00;101573.59;839499;23;926;-52
2022/01/16 00:09:07;;;;;;;14.23;9.03;;;;;;;1.26;100.00;101576.53;839261;23;820;-52
2022/01/16 00:09:28;;;;;;;13.90;9.00;;;;;;;1.24;100.00;101578.13;838659;23;765;-53
2022/01/16 00:09:48;;;;;;;14.30;8.73;;;;;;;1.27;100.00;101578.28;840152;23;753;-52
2022/01/16 00:10:10;;;;;;;14.77;8.80;;;;;;;1.25;100.00;101579.91;838022;23;4241;-54
2022/01/16 00:10:30;;;;;;;14.60;9.23;;;;;;;1.23;100.00;101578.06;839215;23;978;-52
2022/01/16 00:10:50;;;;;;;13.27;8.87;;;;;;;1.21;100.00;101583.16;838826;23;892;-52
2022/01/16 00:11:12;;;;;;;14.32;9.13;;;;;;;1.23;100.00;101578.94;837947;23;911;-52
2022/01/16 00:11:32;;;;;;;14.57;9.45;;;;;;;1.19;100.00;101579.59;839441;23;875;-54
2022/01/16 00:11:56;;;;;;;13.48;8.63;;;;;;;1.27;100.00;101579.97;837655;23;1169;-52
2022/01/16 00:12:18;;;;;;;14.02;8.65;;;;;;;1.29;100.00;101580.97;839620;23;947;-53
2022/01/16 00:12:39;;;;;;;14.10;9.20;;;;;;;1.23;100.00;101580.66;836846;23;1018;-52
2022/01/16 00:13:00;;;;;;;14.43;9.53;;;;;;;1.16;100.00;101579.47;834177;23;872;-52
2022/01/16 00:13:21;;;;;;;15.13;9.68;;;;;;;1.11;100.00;101580.91;827103;23;4301;-54
2022/01/16 00:13:41;;;;;;;14.60;9.45;;;;;;;1.11;100.00;101579.25;832514;23;761;-52
2022/01/16 00:14:03;;;;;;;14.53;9.40;;;;;;;1.15;100.00;101578.59;834505;23;857;-52
2022/01/16 00:14:25;;;;;;;13.77;9.38;;;;;;;1.13;100.00;101587.03;829990;23;920;-52
2022/01/16 00:14:45;;;;;;;14.75;9.70;;;;;;;1.12;100.00;101588.75;829098;23;1898;-51
2022/01/16 00:15:07;;;;;;;14.27;9.48;;;;;;;1.11;100.00;101576.69;830446;23;840;-50
2022/01/16 00:15:28;;;;;;;14.35;9.00;;;;;;;1.13;100.00;101584.47;828840;23;880;-53
2022/01/16 00:15:48;;;;;;;14.33;9.43;;;;;;;1.09;100.00;101577.41;828578;23;773;-54
2022/01/16 00:16:13;;;;;;;14.70;9.40;;;;;;;1.20;100.00;101571.06;829126;23;4391;-51
2022/01/16 00:16:33;;;;;;;14.07;8.65;;;;;;;1.28;100.00;101569.75;832308;23;970;-53
2022/01/16 00:16:54;;;;;;;13.80;8.98;;;;;;;1.27;100.00;101577.41;837439;23;1040;-55
2022/01/16 00:17:14;;;;;;;14.13;9.30;;;;;;;1.22;100.00;101568.56;838367;23;851;-51
2022/01/16 00:17:41;;;;;;;14.03;9.17;;;;;;;1.18;100.00;101565.84;840907;23;895;-51
2022/01/16 00:18:28;;;;;;;13.90;9.20;;;;;;;1.21;100.00;101565.13;841667;23;843;-51
2022/01/16 00:18:49;;;;;;;15.07;9.50;;;;;;;1.14;100.00;101560.50;838503;23;820;-52
2022/01/16 00:19:10;;;;;;;15.23;9.73;;;;;;;1.07;100.00;101566.16;838065;23;4342;-54
2022/01/16 00:19:30;;;;;;;15.13;9.67;;;;;;;1.02;100.00;101569.41;831704;23;1613;-52
2022/01/16 00:19:51;;;;;;;14.95;10.18;;;;;;;0.98;100.00;101566.56;832463;23;853;-53
2022/01/16 00:20:11;;;;;;;14.17;9.63;;;;;;;0.96;100.00;101571.66;832076;23;860;-52
2022/01/16 00:20:32;;;;;;;14.60;9.57;;;;;;;0.94;100.00;101573.28;834261;23;872;-55
2022/01/16 00:20:53;;;;;;;14.57;9.57;;;;;;;0.94;100.00;101574.97;829601;23;797;-56
2022/01/16 00:21:13;;;;;;;14.68;9.30;;;;;;;0.92;100.00;101577.47;829456;23;952;-54
2022/01/16 00:21:39;;;;;;;15.87;9.90;;;;;;;0.91;100.00;101577.38;831177;23;943;-52
2022/01/16 00:21:59;;;;;;;16.30;9.98;;;;;;;0.90;100.00;101576.53;833810;23;828;-52
2022/01/16 00:22:24;;;;;;;15.40;9.73;;;;;;;0.89;100.00;101579.91;831914;23;4460;-56
2022/01/16 00:22:46;;;;;;;15.40;9.65;;;;;;;0.87;100.00;101572.91;836693;23;963;-53
2022/01/16 00:23:09;;;;;;;15.05;10.10;;;;;;;0.84;100.00;101578.78;838116;23;931;-53
2022/01/16 00:23:30;;;;;;;14.73;9.70;;;;;;;0.93;100.00;101578.34;835600;23;978;-53
2022/01/16 00:23:51;;;;;;;13.87;9.30;;;;;;;0.95;100.00;101574.16;837195;23;745;-57
2022/01/16 00:24:12;;;;;;;14.00;9.13;;;;;;;1.11;100.00;101580.91;838104;23;820;-52
2022/01/16 00:24:34;;;;;;;14.77;9.20;;;;;;;1.17;100.00;101576.09;837042;23;773;-54
2022/01/16 00:24:55;;;;;;;14.24;9.30;;;;;;;1.19;100.00;101579.59;837967;23;950;-53
2022/01/16 00:25:16;;;;;;;14.57;9.33;;;;;;;1.31;100.00;101577.63;837048;23;4219;-55
2022/01/16 00:25:36;;;;;;;15.60;9.68;;;;;;;1.32;100.00;101574.25;837328;23;783;-52
2022/01/16 00:25:57;;;;;;;15.95;9.80;;;;;;;1.27;100.00;101578.28;837370;23;809;-55
2022/01/16 00:26:18;;;;;;;15.32;9.95;;;;;;;1.31;100.00;101580.19;837271;23;951;-52
2022/01/16 00:26:40;;;;;;;14.80;9.57;;;;;;;1.28;100.00;101580.06;837030;23;800;-55
2022/01/16 00:27:01;;;;;;;14.60;9.32;;;;;;;1.25;100.00;101579.91;837789;23;1147;-52
2022/01/16 00:27:22;;;;;;;14.50;9.00;;;;;;;1.29;100.00;101580.97;837677;23;808;-52
2022/01/16 00:27:45;;;;;;;14.43;9.23;;;;;;;1.24;100.00;101580.72;831974;23;1363;-52
2022/01/16 00:28:08;;;;;;;14.88;9.85;;;;;;;1.21;100.00;101571.97;830505;23;4313;-51
2022/01/16 00:28:28;;;;;;;14.35;9.55;;;;;;;1.18;100.00;101570.13;833463;23;931;-52
2022/01/16 00:28:51;;;;;;;14.45;9.63;;;;;;;1.16;100.00;101576.88;832782;23;1182;-51
2022/01/16 00:29:12;;;;;;;15.05;9.38;;;;;;;1.15;100.00;101569.97;833357;23;812;-55
2022/01/16 00:29:33;;;;;;;14.75;9.38;;;;;;;1.10;100.00;101572.31;834990;23;853;-52
2022/01/16 00:29:53;;;;;;;15.33;9.43;;;;;;;1.05;100.00;101571.22;833829;23;860;-52
2022/01/16 00:30:14;;;;;;;15.88;9.82;;;;;;;1.01;100.00;101572.78;833640;23;792;-52
2022/01/16 00:30:34;;;;;;;15.43;9.93;;;;;;;0.99;100.00;101571.81;833933;23;782;-53
2022/01/16 00:30:55;;;;;;;15.10;9.57;;;;;;;1.08;100.00;101573.97;837215;23;820;-53
2022/01/16 00:31:17;;;;;;;16.33;9.87;;;;;;;1.22;100.00;101573.72;836029;23;4314;-52
2022/01/16 00:31:41;;;;;;;14.85;9.57;;;;;;;1.24;100.00;101578.13;837589;23;915;-53
2022/01/16 00:32:02;;;;;;;14.80;9.77;;;;;;;1.25;100.00;101573.88;837514;23;955;-53
2022/01/16 00:32:22;;;;;;;15.50;9.85;;;;;;;1.22;100.00;101566.00;837192;23;885;-52
2022/01/16 00:32:43;;;;;;;15.13;9.53;;;;;;;1.18;100.00;101570.13;837254;23;985;-53
2022/01/16 00:33:04;;;;;;;14.88;9.38;;;;;;;1.23;100.00;101565.19;836743;23;976;-53
2022/01/16 00:33:24;;;;;;;14.30;8.90;;;;;;;1.30;100.00;101573.31;836585;23;824;-56
2022/01/16 00:33:45;;;;;;;14.47;9.40;;;;;;;1.24;100.00;101567.84;832065;23;945;-52
2022/01/16 00:34:07;;;;;;;14.70;9.60;;;;;;;1.24;100.00;101574.69;832459;23;4373;-52
2022/01/16 00:34:27;;;;;;;15.35;9.75;;;;;;;1.22;100.00;101571.13;831612;23;824;-52
2022/01/16 00:34:48;;;;;;;16.27;9.53;;;;;;;1.22;100.00;101566.00;831937;23;1960;-53
2022/01/16 00:35:09;;;;;;;14.87;9.50;;;;;;;1.16;100.00;101569.16;831804;23;792;-57
2022/01/16 00:35:29;;;;;;;14.10;9.38;;;;;;;1.13;100.00;101574.16;833902;23;940;-51
2022/01/16 00:35:50;;;;;;;14.13;9.23;;;;;;;1.24;100.00;101575.56;837434;23;979;-54
2022/01/16 00:36:14;;;;;;;14.00;9.38;;;;;;;1.29;100.00;101571.53;836878;23;899;-52
2022/01/16 00:36:35;;;;;;;15.30;9.93;;;;;;;1.23;100.00;101571.22;835100;23;1944;-54
2022/01/16 00:36:55;;;;;;;15.35;9.50;;;;;;;1.19;100.00;101575.34;837627;23;919;-52
2022/01/16 00:37:16;;;;;;;13.83;9.43;;;;;;;1.29;100.00;101573.22;835479;23;4349;-52
2022/01/16 00:37:36;;;;;;;14.03;9.73;;;;;;;1.24;100.00;101573.00;836849;23;747;-51
2022/01/16 00:37:56;;;;;;;14.43;9.37;;;;;;;1.18;100.00;101575.28;837461;23;907;-52
2022/01/16 00:38:17;;;;;;;14.82;9.75;;;;;;;1.12;100.00;101575.88;831063;23;862;-54
2022/01/16 00:38:44;;;;;;;15.43;9.67;;;;;;;1.09;100.00;101573.13;832567;23;825;-54
2022/01/16 00:39:05;;;;;;;15.43;9.50;;;;;;;1.03;100.00;101580.56;833027;23;784;-54
2022/01/16 00:39:25;;;;;;;15.27;9.85;;;;;;;1.00;100.00;101578.72;832792;23;931;-53
2022/01/16 00:39:45;;;;;;;15.30;9.77;;;;;;;1.13;100.00;101587.03;833169;23;827;-51
2022/01/16 00:40:08;;;;;;;15.60;9.80;;;;;;;1.12;100.00;101577.53;834095;23;4263;-52
2022/01/16 00:40:29;;;;;;;15.00;9.57;;;;;;;1.07;100.00;101579.03;836908;23;812;-55
2022/01/16 00:40:49;;;;;;;14.95;9.63;;;;;;;1.06;100.00;101579.84;838072;23;896;-51
2022/01/16 00:41:11;;;;;;;14.90;9.90;;;;;;;1.04;100.00;101578.88;835752;23;804;-52
2022/01/16 00:41:33;;;;;;;14.82;9.85;;;;;;;1.01;100.00;101577.03;836585;23;907;-51
2022/01/16 00:41:53;;;;;;;15.52;10.05;;;;;;;0.98;100.00;101580.34;837752;23;942;-54
2022/01/16 00:42:13;;;;;;;16.20;10.10;;;;;;;0.97;100.00;101572.53;832934;23;900;-52
2022/01/16 00:42:34;;;;;;;16.15;10.20;;;;;;;0.96;100.00;101584.53;832701;23;892;-52
2022/01/16 00:42:56;;;;;;;15.37;9.87;;;;;;;0.95;100.00;101574.16;833295;23;959;-52
2022/01/16 00:43:16;;;;;;;14.65;9.68;;;;;;;0.93;100.00;101570.59;834545;23;4374;-54
2022/01/16 00:43:37;;;;;;;14.98;9.93;;;;;;;1.08;100.00;101575.63;836164;23;875;-52
2022/01/16 00:43:57;;;;;;;14.73;9.82;;;;;;;1.04;100.00;101566.91;837549;23;900;-55
2022/01/16 00:44:18;;;;;;;14.13;9.57;;;;;;;1.05;100.00;101570.34;838693;23;1079;-52
2022/01/16 00:44:38;;;;;;;14.45;9.95;;;;;;;1.21;100.00;101570.28;841262;23;880;-52
2022/01/16 00:44:58;;;;;;;15.17;10.10;;;;;;;1.17;100.00;101569.22;839784;23;879;-54
2022/01/16 00:45:19;;;;;;;14.98;9.73;;;;;;;1.12;100.00;101568.16;836834;23;950;-51
2022/01/16 00:45:39;;;;;;;15.33;9.60;;;;;;;1.09;100.00;101567.97;832168;23;805;-53
2022/01/16 00:45:59;;;;;;;16.47;10.03;;;;;;;1.08;100.00;101573.97;828744;23;1086;-51
2022/01/16 00:46:20;;;;;;;16.02;10.15;;;;;;;1.06;100.00;101574.69;827250;23;4267;-52
2022/01/16 00:46:41;;;;;;;15.57;10.48;;;;;;;1.01;100.00;101574.44;828829;23;955;-53
2022/01/16 00:47:02;;;;;;;15.60;10.40;;;;;;;0.99;100.00;101579.53;828953;23;889;-53
2022/01/16 00:47:22;;;;;;;14.65;9.80;;;;;;;1.17;100.00;101582.09;829819;23;779;-52
2022/01/16 00:47:42;;;;;;;15.27;9.93;;;;;;;1.15;100.00;101588.00;834711;23;943;-52
2022/01/16 00:48:07;;;;;;;14.68;10.13;;;;;;;1.14;100.00;101591.41;837322;23;845;-52
2022/01/16 00:48:27;;;;;;;16.10;10.13;;;;;;;1.10;100.00;101586.91;836281;23;813;-53
2022/01/16 00:48:48;;;;;;;15.23;10.07;;;;;;;1.05;100.00;101589.22;832133;23;790;-52
2022/01/16 00:49:08;;;;;;;15.13;9.95;;;;;;;1.08;100.00;101583.34;831885;23;4291;-51
2022/01/16 00:49:31;;;;;;;15.03;10.43;;;;;;;1.05;100.00;101580.63;835121;23;836;-54
2022/01/16 00:49:51;;;;;;;15.75;10.90;;;;;;;1.05;100.00;101585.78;835568;23;947;-52
2022/01/16 00:50:11;;;;;;;16.07;11.13;;;;;;;1.04;100.00;101586.59;835830;23;812;-52
2022/01/16 00:50:34;;;;;;;16.27;11.40;;;;;;;1.02;100.00;101583.94;835901;23;1037;-53
2022/01/16 00:50:55;;;;;;;16.48;11.05;;;;;;;1.00;100.00;101572.69;840738;23;942;-52
2022/01/16 00:51:16;;;;;;;16.10;11.18;;;;;;;1.00;100.00;101576.16;840769;23;1272;-54
2022/01/16 00:51:36;;;;;;;15.95;10.55;;;;;;;1.04;100.00;101576.28;836185;23;522;-52
2022/01/16 00:51:57;;;;;;;15.18;10.15;;;;;;;1.05;100.00;101581.50;837433;23;944;-52
2022/01/16 00:52:19;;;;;;;15.27;10.40;;;;;;;1.07;100.00;101568.75;835257;23;4650;-55
2022/01/16 00:52:39;;;;;;;15.50;10.50;;;;;;;1.05;100.00;101570.34;836804;23;939;-53
2022/01/16 00:53:00;;;;;;;15.57;10.02;;;;;;;1.07;100.00;101568.75;837830;23;991;-52
2022/01/16 00:53:20;;;;;;;15.93;10.50;;;;;;;1.05;100.00;101558.34;836723;23;899;-51
2022/01/16 00:53:43;;;;;;;16.33;10.63;;;;;;;1.10;100.00;101563.72;836027;23;886;-53
2022/01/16 00:54:03;;;;;;;16.42;10.70;;;;;;;1.05;100.00;101565.19;836452;23;935;-55
2022/01/16 00:54:25;;;;;;;17.10;11.00;;;;;;;1.03;100.00;101562.53;835730;23;803;-56
2022/01/16 00:54:45;;;;;;;15.55;10.48;;;;;;;1.02;100.00;101577.13;836381;23;1947;-52
2022/01/16 00:55:06;;;;;;;15.93;10.87;;;;;;;1.01;100.00;101580.50;835548;23;4402;-57
2022/01/16 00:55:27;;;;;;;16.58;10.80;;;;;;;0.98;100.00;101580.34;835565;23;882;-56
2022/01/16 00:55:48;;;;;;;16.42;10.85;;;;;;;1.00;100.00;101578.72;832272;23;1435;-55
2022/01/16 00:56:08;;;;;;;15.83;10.83;;;;;;;1.12;100.00;101583.59;832871;23;820;-52
2022/01/16 00:56:28;;;;;;;15.43;10.60;;;;;;;1.16;100.00;101579.47;828370;23;860;-53
2022/01/16 00:56:49;;;;;;;15.77;10.70;;;;;;;1.14;100.00;101573.38;827413;23;796;-54
2022/01/16 00:57:09;;;;;;;15.53;10.87;;;;;;;1.10;100.00;101579.19;827650;23;867;-51
2022/01/16 00:57:30;;;;;;;17.00;11.40;;;;;;;1.06;100.00;101577.25;829246;23;915;-53
2022/01/16 00:57:51;;;;;;;16.75;10.88;;;;;;;1.02;100.00;101582.28;835472;23;780;-55
2022/01/16 00:58:11;;;;;;;16.27;10.47;;;;;;;1.09;100.00;101585.13;834794;23;4248;-53
2022/01/16 00:58:32;;;;;;;16.90;11.10;;;;;;;1.22;100.00;101587.50;837013;23;780;-52
2022/01/16 00:58:52;;;;;;;17.75;11.30;;;;;;;1.17;100.00;101586.38;838655;23;849;-52
2022/01/16 00:59:12;;;;;;;17.23;10.90;;;;;;;1.13;100.00;101579.31;836801;23;904;-53
2022/01/16 00:59:33;;;;;;;16.83;10.82;;;;;;;1.23;100.00;101576.38;836888;23;780;-52
2022/01/16 00:59:53;;;;;;;16.17;10.63;;;;;;;1.32;100.00;101583.66;837057;23;923;-55
2022/01/16 01:00:14;;;;;;;16.07;10.80;;;;;;;1.28;100.00;101584.34;836859;23;1106;-52
2022/01/16 01:00:34;;;;;;;15.97;10.57;;;;;;;1.30;100.00;101585.28;835757;23;1411;-51
2022/01/16 01:00:54;;;;;;;16.47;10.83;;;;;;;1.24;100.00;101578.13;837929;23;824;-51
2022/01/16 01:01:15;;;;;;;16.10;10.70;;;;;;;1.20;100.00;101573.66;835119;23;4204;-53
2022/01/16 01:01:35;;;;;;;16.07;10.80;;;;;;;1.17;100.00;101574.38;836775;23;742;-55
2022/01/16 01:01:56;;;;;;;16.48;11.20;;;;;;;1.17;100.00;101574.38;837170;23;816;-54
2022/01/16 01:02:16;;;;;;;17.50;11.40;;;;;;;1.18;100.00;101572.72;836224;23;1299;-52
2022/01/16 01:02:36;;;;;;;16.17;10.67;;;;;;;1.33;100.00;101568.28;835395;23;792;-54
2022/01/16 01:02:57;;;;;;;17.00;10.80;;;;;;;1.31;100.00;101564.72;837802;23;840;-52
2022/01/16 01:03:17;;;;;;;17.70;11.43;;;;;;;1.27;100.00;101554.22;836384;23;942;-55
2022/01/16 01:03:38;;;;;;;16.63;11.07;;;;;;;1.25;100.00;101559.31;835761;23;915;-53
2022/01/16 01:03:58;;;;;;;17.40;11.30;;;;;;;1.18;100.00;101563.28;836712;23;771;-54
2022/01/16 01:04:19;;;;;;;17.97;11.40;;;;;;;1.19;100.00;101564.16;834597;23;4428;-53
2022/01/16 01:04:44;;;;;;;17.00;11.37;;;;;;;1.23;100.00;101571.22;836720;23;994;-55
2022/01/16 01:05:05;;;;;;;17.30;11.38;;;;;;;1.25;100.00;101574.75;837395;23;967;-53
2022/01/16 01:05:26;;;;;;;17.80;11.43;;;;;;;1.28;100.00;101581.75;836400;23;690;-53
2022/01/16 01:05:46;;;;;;;18.23;11.80;;;;;;;1.25;100.00;101587.66;836766;23;887;-55
2022/01/16 01:06:07;;;;;;;17.23;11.53;;;;;;;1.24;100.00;101588.44;837982;23;741;-53
2022/01/16 01:06:28;;;;;;;16.83;11.20;;;;;;;1.23;100.00;101586.66;837628;23;1026;-52
2022/01/16 01:06:50;;;;;;;17.63;11.47;;;;;;;1.20;100.00;101578.81;836425;23;904;-52
2022/01/16 01:07:10;;;;;;;17.50;11.13;;;;;;;1.18;100.00;101583.88;835308;23;4256;-55
2022/01/16 01:07:31;;;;;;;16.47;11.23;;;;;;;1.20;100.00;101578.81;836707;23;939;-52
2022/01/16 01:07:52;;;;;;;17.35;11.57;;;;;;;1.14;100.00;101578.53;831280;23;1267;-53
2022/01/16 01:08:13;;;;;;;18.15;11.60;;;;;;;1.21;100.00;101577.13;833826;23;918;-53
2022/01/16 01:08:34;;;;;;;18.33;11.45;;;;;;;1.25;100.00;101581.63;832276;23;958;-53
2022/01/16 01:08:54;;;;;;;17.95;11.32;;;;;;;1.25;100.00;101585.06;834246;23;824;-51
2022/01/16 01:09:16;;;;;;;18.33;11.67;;;;;;;1.24;100.00;101583.28;832997;23;912;-54
2022/01/16 01:09:37;;;;;;;17.58;11.60;;;;;;;1.25;100.00;101585.06;833448;23;812;-52
2022/01/16 01:09:57;;;;;;;16.65;11.48;;;;;;;1.23;100.00;101596.97;836443;23;776;-56
2022/01/16 01:10:18;;;;;;;17.70;11.90;;;;;;;1.22;100.00;101599.47;834997;23;4301;-54
2022/01/16 01:10:41;;;;;;;18.63;11.93;;;;;;;1.26;100.00;101598.81;835788;23;955;-52
2022/01/16 01:11:06;;;;;;;18.10;11.32;;;;;;;1.23;100.00;101591.81;838491;23;804;-54
2022/01/16 01:11:29;;;;;;;17.75;11.55;;;;;;;1.18;100.00;101599.34;837008;23;931;-52
2022/01/16 01:11:50;;;;;;;17.85;11.55;;;;;;;1.14;100.00;101594.84;836555;23;892;-55
2022/01/16 01:12:13;;;;;;;17.63;11.85;;;;;;;1.12;100.00;101598.16;836990;23;1152;-53
2022/01/16 01:12:52;;;;;;;18.33;11.68;;;;;;;1.12;100.00;101603.31;836995;23;882;-56
2022/01/16 01:13:22;;;;;;;17.33;11.73;;;;;;;1.16;100.00;101592.34;831341;23;4451;-51
2022/01/16 01:14:27;;;;;;;16.73;11.32;;;;;;;1.30;100.00;101588.75;825900;23;1321;-53
2022/01/16 01:14:39;;;;;;;17.95;11.80;;;;;;;1.31;100.00;101597.34;833437;23;875;-52
2022/01/16 01:15:07;;;;;;;16.88;11.35;;;;;;;1.25;100.00;101590.22;825953;23;1893;-56
2022/01/16 01:15:30;;;;;;;17.88;11.52;;;;;;;1.27;100.00;101595.44;832674;23;852;-55
2022/01/16 01:15:58;;;;;;;16.60;11.10;;;;;;;1.27;100.00;101596.31;828209;23;1033;-55
2022/01/16 01:16:18;;;;;;;17.40;11.13;;;;;;;1.25;100.00;101607.38;827825;23;4418;-55
2022/01/16 01:16:57;;;;;;;17.57;11.73;;;;;;;1.19;100.00;101601.13;830808;23;741;-52
2022/01/16 01:17:23;;;;;;;17.50;11.57;;;;;;;1.13;100.00;101605.06;833531;23;899;-52
2022/01/16 01:17:45;;;;;;;19.73;12.55;;;;;;;1.12;100.00;101603.31;835554;23;980;-51
2022/01/16 01:18:06;;;;;;;16.95;11.60;;;;;;;1.12;100.00;101603.31;836665;23;840;-55
2022/01/16 01:18:26;;;;;;;16.53;11.30;;;;;;;1.12;100.00;101593.00;836776;23;737;-52
2022/01/16 01:18:47;;;;;;;17.70;11.80;;;;;;;1.10;100.00;101595.50;838124;23;752;-55
2022/01/16 01:19:07;;;;;;;18.03;11.63;;;;;;;1.06;100.00;101585.00;836951;23;4208;-51
2022/01/16 01:19:32;;;;;;;18.27;12.13;;;;;;;1.02;100.00;101584.84;830452;23;1475;-54
2022/01/16 01:19:53;;;;;;;17.58;12.02;;;;;;;1.05;100.00;101585.78;828039;23;935;-54
2022/01/16 01:20:17;;;;;;;17.13;11.43;;;;;;;1.02;100.00;101589.09;828818;23;1604;-52
2022/01/16 01:20:40;;;;;;;17.60;11.98;;;;;;;0.98;100.00;101590.66;827546;23;1221;-54
2022/01/16 01:21:04;;;;;;;17.95;12.10;;;;;;;0.99;100.00;101594.09;827757;23;789;-52
2022/01/16 01:21:28;;;;;;;18.67;12.10;;;;;;;0.99;100.00;101597.53;831236;23;911;-52
2022/01/16 01:21:49;;;;;;;18.13;11.85;;;;;;;0.97;100.00;101596.59;831954;23;752;-56
2022/01/16 01:22:09;;;;;;;17.13;11.80;;;;;;;0.96;100.00;101597.41;835598;23;4291;-54
2022/01/16 01:22:29;;;;;;;17.03;12.03;;;;;;;0.96;100.00;101592.25;836783;23;725;-52
2022/01/16 01:22:52;;;;;;;18.52;12.45;;;;;;;0.94;100.00;101598.13;836123;23;745;-55
2022/01/16 01:23:13;;;;;;;17.45;11.93;;;;;;;0.95;100.00;101607.63;837562;23;851;-52
2022/01/16 01:23:33;;;;;;;17.60;12.20;;;;;;;0.94;100.00;101606.75;836102;23;867;-53
2022/01/16 01:23:55;;;;;;;18.38;12.25;;;;;;;0.95;100.00;101603.34;836206;23;765;-53
2022/01/16 01:24:15;;;;;;;19.33;13.10;;;;;;;0.94;100.00;101611.00;836256;23;895;-53
2022/01/16 01:24:36;;;;;;;17.50;12.53;;;;;;;0.91;100.00;101608.28;834764;23;784;-53
2022/01/16 01:24:56;;;;;;;18.10;12.45;;;;;;;0.90;100.00;101610.00;833537;23;876;-54
2022/01/16 01:25:17;;;;;;;18.23;11.97;;;;;;;0.88;100.00;101614.16;829654;23;4409;-51
2022/01/16 01:25:39;;;;;;;18.13;12.20;;;;;;;0.89;100.00;101620.19;833543;23;832;-53
2022/01/16 01:25:59;;;;;;;18.63;12.48;;;;;;;0.87;100.00;101617.53;832256;23;836;-52
2022/01/16 01:26:24;;;;;;;18.73;12.80;;;;;;;0.88;100.00;101616.72;832844;23;954;-51
2022/01/16 01:27:31;;;;;;;19.50;12.63;;;;;;;0.93;100.00;101628.16;829435;23;867;-53
2022/01/16 01:27:33;;;;;;;18.52;12.48;;;;;;;0.98;100.00;101618.06;832507;23;1213;-53
2022/01/16 01:27:54;;;;;;;18.42;12.43;;;;;;;0.95;100.00;101623.94;832380;23;1327;-53
2022/01/16 01:28:14;;;;;;;18.40;12.63;;;;;;;0.94;100.00;101617.06;826003;23;4219;-52
2022/01/16 01:28:35;;;;;;;19.05;12.80;;;;;;;0.93;100.00;101617.84;830088;23;1165;-52
2022/01/16 01:28:55;;;;;;;20.07;13.53;;;;;;;0.94;100.00;101619.63;831983;23;911;-54
2022/01/16 01:29:19;;;;;;;19.93;13.27;;;;;;;0.93;100.00;101612.72;831680;23;895;-52
2022/01/16 01:29:45;;;;;;;18.38;12.60;;;;;;;0.96;100.00;101614.56;837213;23;971;-53
2022/01/16 01:30:07;;;;;;;18.13;12.20;;;;;;;1.12;100.00;101616.19;838866;23;868;-53
2022/01/16 01:30:27;;;;;;;18.52;12.65;;;;;;;1.07;100.00;101615.09;840962;23;816;-54
2022/01/16 01:30:48;;;;;;;20.23;13.23;;;;;;;1.04;100.00;101620.97;841244;23;792;-55
2022/01/16 01:31:11;;;;;;;19.02;12.82;;;;;;;1.09;100.00;101623.75;839836;23;4192;-52
2022/01/16 01:31:31;;;;;;;18.75;12.85;;;;;;;1.12;100.00;101618.75;839189;23;997;-54
2022/01/16 01:31:52;;;;;;;18.00;12.85;;;;;;;1.13;100.00;101623.09;836134;23;787;-53
2022/01/16 01:32:13;;;;;;;18.70;12.95;;;;;;;1.17;100.00;101620.75;837666;23;884;-54
2022/01/16 01:32:35;;;;;;;18.67;12.63;;;;;;;1.19;100.00;101615.66;836123;23;745;-53
2022/01/16 01:32:58;;;;;;;19.48;12.50;;;;;;;1.15;100.00;101609.50;837511;23;880;-55
2022/01/16 01:33:20;;;;;;;18.42;12.50;;;;;;;1.13;100.00;101605.06;835785;23;940;-56
2022/01/16 01:33:40;;;;;;;19.75;13.18;;;;;;;1.08;100.00;101593.66;832099;23;1132;-52
2022/01/16 01:34:00;;;;;;;19.58;13.77;;;;;;;1.06;100.00;101588.44;833715;23;912;-56
2022/01/16 01:34:21;;;;;;;19.37;13.23;;;;;;;1.00;100.00;101581.28;829530;23;4341;-53
2022/01/16 01:34:42;;;;;;;18.20;13.27;;;;;;;1.05;100.00;101576.34;832064;23;922;-54
2022/01/16 01:35:10;;;;;;;18.85;12.93;;;;;;;1.22;100.00;101566.91;832352;23;1937;-54
2022/01/16 01:35:38;;;;;;;19.05;12.82;;;;;;;1.26;100.00;101565.31;831982;23;1578;-54
2022/01/16 01:35:58;;;;;;;19.48;12.80;;;;;;;1.35;100.00;101560.63;833078;23;944;-52
2022/01/16 01:36:19;;;;;;;19.97;13.27;;;;;;;1.29;100.00;101557.78;832369;23;896;-53
2022/01/16 01:36:39;;;;;;;18.63;12.77;;;;;;;1.38;100.00;101544.44;836287;23;876;-52
2022/01/16 01:36:59;;;;;;;18.43;13.00;;;;;;;1.34;100.00;101544.28;837490;23;923;-61
2022/01/16 01:37:20;;;;;;;18.13;12.52;;;;;;;1.47;100.00;101539.72;836098;23;4206;-55
2022/01/16 01:37:42;;;;;;;18.80;12.53;;;;;;;1.51;100.00;101541.63;836802;23;655;-53
2022/01/16 01:38:04;;;;;;;18.50;12.90;;;;;;;1.47;100.00;101538.00;836759;23;828;-52
2022/01/16 01:38:25;;;;;;;19.23;13.40;;;;;;;1.36;100.00;101545.22;836314;23;1010;-53
2022/01/16 01:38:45;;;;;;;18.63;13.05;;;;;;;1.28;100.00;101554.28;835426;23;921;-55
2022/01/16 01:39:06;;;;;;;19.77;13.50;;;;;;;1.23;100.00;101547.16;835892;23;785;-56
2022/01/16 01:39:26;;;;;;;19.63;13.52;;;;;;;1.18;100.00;101552.97;837050;23;905;-54
2022/01/16 01:39:46;;;;;;;20.80;14.23;;;;;;;1.15;100.00;101542.53;837858;23;892;-53
2022/01/16 01:40:13;;;;;;;20.20;13.70;;;;;;;1.21;100.00;101552.25;836132;23;4201;-53
2022/01/16 01:40:35;;;;;;;19.25;13.07;;;;;;;1.29;100.00;101542.31;836126;23;932;-55
2022/01/16 01:40:56;;;;;;;18.40;12.43;;;;;;;1.31;100.00;101536.41;836535;23;893;-52
2022/01/16 01:41:19;;;;;;;18.00;12.55;;;;;;;1.29;100.00;101535.47;837115;23;921;-54
2022/01/16 01:41:39;;;;;;;18.65;12.80;;;;;;;1.23;100.00;101540.31;836792;23;979;-53
2022/01/16 01:42:07;;;;;;;18.88;13.20;;;;;;;1.19;100.00;101546.13;836561;23;864;-54
2022/01/16 01:42:33;;;;;;;21.02;14.43;;;;;;;1.14;100.00;101545.03;835985;23;963;-56
2022/01/16 01:51:04;;;;;;;21.60;15.15;;;;;;;1.00;100.00;101577.84;836706;23;831;-52
2022/01/16 01:51:26;;;;;;;22.48;15.32;;;;;;;1.03;100.00;101583.16;837258;23;1358;-56
2022/01/16 01:51:46;;;;;;;22.80;15.02;;;;;;;1.01;100.00;101580.50;836886;23;856;-54
2022/01/16 01:52:07;;;;;;;20.37;14.80;;;;;;;1.01;100.00;101582.16;831543;23;4227;-58
2022/01/16 01:52:28;;;;;;;21.52;15.32;;;;;;;0.98;100.00;101590.66;831714;23;899;-53
2022/01/16 01:52:49;;;;;;;21.90;15.38;;;;;;;0.97;100.00;101585.41;833362;23;1066;-55
2022/01/16 01:53:13;;;;;;;22.40;15.13;;;;;;;0.97;100.00;101590.56;832675;23;844;-56
2022/01/16 01:53:36;;;;;;;21.90;15.05;;;;;;;0.96;100.00;101596.53;826895;23;1087;-55
2022/01/16 01:53:57;;;;;;;21.35;15.15;;;;;;;0.95;100.00;101594.75;830242;23;944;-55
2022/01/16 01:54:17;;;;;;;21.55;14.90;;;;;;;0.98;100.00;101600.97;835468;23;816;-53